Main page
METAR-TAF:

METAR-TAF

Airports :

Nawabshah Airport

Nawabshah, Pakistan

latitude: 26-15N, longitude: 068-22E, elevation: 37 m

Current weather observation

The report was made 40 minutes ago, at 02:59 UTC
Wind 4 kt from the North
Temperature 28°C
Humidity 66%
Pressure 1006 hPa
Visibility: 4000 m
haze

METAR: OPNH 230259Z 36004KT 4000 HZ NSC 28/21 Q1006 NOSIG

Time: 08:39 (03:39 UTC)

Forecast

The report was made 3 hours and 9 minutes ago, at 00:30 UTC
Forecast valid from 23 at 03 UTC to 23 at 12 UTC
Wind 10 kt from the Northwest
Visibility: 4000 m
Few clouds at a height of 3000 ft
Scattered clouds at a height of 10000 ft
haze

TAF: OPNH 230030Z 2303/2312 31010KT 4000 HZ FEW030 SCT100

Weather observations and forecasts of more than 4000 airports (METAR and TAF reports).

The available stations are represented by yellow and red dots on the map.

Hover mouse over dot to see the name of the station.

Then click to see weather observations and forecasts.

To change the map : click on the green buttons with a black cross to zoom in, on the green button with a dash to zoom out, or on the green arrows for adjacent maps.


METAR-TAF: